Terminal Aerodrome Forecast
Issued by NWS

Home | Current Version | Previous Version | Graphics & Text | Print | Product List | Glossary On
Versions: 1 2 3 4 5 6 7 8 9 10 11 12 13 14 15 16 17 18 19 20 21 22 23 24 25 26
000
FTUS43 KPAH 042037 AAA
TAFOWB
TAF AMD
KOWB 042037Z 0421/0518 29008KT P6SM VCTS SCT050CB
      TEMPO 0421/0424 VRB15G25KT 2SM +TSRA BKN025CB
     FM050000 01004KT P6SM SCT100 BKN250
     FM050900 06004KT P6SM VCSH SCT050 BKN150
     FM051500 14006KT P6SM VCSH SCT030 BKN080 PROB30 0515/0518 4SM
      TSRA BKN035CB=

USA.gov is the U.S. government's official web portal to all federal, state and local government web resources and services.